Главная страница
METAR-TAF:

METAR-TAF

Аэропорты :

Нассау, Багамы

широта: 25-03N, долгота: 077-28W, высота над уровнем моря: 3 м

Текущие метеонаблюдения

Эта сводка был подготовлена 16 минут назад, в 22:00 UTC
Ветер 4 Узел от северо-северо-восточный
Температура 28°C
Влажность 74%
Давление 1015 hPa
Видимость 10 км и более
Отдельные облака на высоте 2000 фута

METAR: MYNN 202200Z 03004KT 9999 SCT020 28/23 A2997

Время: 18:16 (22:16 UTC)

Прогноз

Эта сводка был подготовлена 6 часа и 6 минут назад, в 16:10 UTC
Прогноз действительный с 20-го 18 UTC до 21-го 18 UTC
Ветер 4 Узел от северо-северо-восточный
Видимость 10 км и более
небольшая облачность на высоте 1800 фута
Отдельные облака на высоте 3800 фута
С 21-го 1200 UTC
Ветер 2 Узел переменных направлений
Видимость 10 км и более
небольшая облачность на высоте 1800 фута
Рассеянная облачность на высоте 2500 фута

TAF: MYNN 201610Z 2018/2118 03004KT 9999 FEW018 SCT038 FM211200 VRB02KT 9999 FEW018 BKN025

Метеонаблюдения и прогнозы для более 4000 аэропортов (сводки METAR и TAF).

Имеющиеся станции представлены на карте желтыми и красными точками.

Чтобы увидеть название станции, наведите на нее мышь.

Затем щелкните, чтобы увидеть метеонаблюдения и метеопрогнозы.

Управление картой: чтобы увеличить масштаб, щелкните зеленые кнопки с черным крестиком; чтобы уменьшить масштаб, щелкните зеленую кнопку с тире; для просмотра соседних карт щелкайте зеленые стрелки.


METAR-TAF: